createdAt,value
2023-04-09T00:00:13.676Z,10.40
2023-04-09T00:02:42.047Z,10.25
2023-04-09T00:05:10.203Z,10.36
2023-04-09T00:07:38.221Z,10.47
2023-04-09T00:10:07.764Z,10.33
2023-04-09T00:12:37.691Z,10.37
2023-04-09T00:15:09.604Z,10.44
2023-04-09T00:17:39.397Z,10.39
2023-04-09T00:20:08.885Z,10.28
2023-04-09T00:22:36.685Z,10.13
2023-04-09T00:25:06.018Z,9.97
2023-04-09T00:27:33.813Z,9.93
2023-04-09T00:30:03.252Z,9.86
2023-04-09T00:32:31.342Z,9.67
2023-04-09T00:34:59.109Z,9.44
2023-04-09T00:37:26.983Z,9.35
2023-04-09T00:39:54.766Z,9.30
2023-04-09T00:42:22.997Z,9.29
2023-04-09T00:44:51.440Z,9.33
2023-04-09T00:47:20.675Z,9.35
2023-04-09T00:49:48.690Z,9.30
2023-04-09T00:52:16.692Z,9.23
2023-04-09T00:54:44.554Z,9.14
2023-04-09T00:57:12.442Z,9.14
2023-04-09T00:59:40.570Z,9.16
2023-04-09T01:02:08.532Z,9.17
2023-04-09T01:04:41.612Z,9.05
2023-04-09T01:07:23.491Z,8.90
2023-04-09T01:10:05.255Z,8.77
2023-04-09T01:12:46.357Z,8.69
2023-04-09T01:15:25.486Z,8.72
2023-04-09T01:18:05.176Z,8.69
2023-04-09T01:20:40.526Z,8.58
2023-04-09T01:23:19.721Z,8.60
2023-04-09T01:26:05.562Z,8.55
2023-04-09T01:28:47.680Z,8.58
2023-04-09T01:31:19.973Z,8.63
2023-04-09T01:33:47.773Z,8.55
2023-04-09T01:36:16.614Z,8.50
2023-04-09T01:38:49.915Z,8.43
2023-04-09T01:41:21.780Z,8.31
2023-04-09T01:43:52.210Z,8.21
2023-04-09T01:46:22.590Z,8.23
2023-04-09T01:48:52.156Z,8.17
2023-04-09T01:51:20.294Z,8.10
2023-04-09T01:53:48.830Z,8.04
2023-04-09T01:56:16.624Z,7.94
2023-04-09T01:58:44.484Z,7.89
2023-04-09T02:01:22.954Z,7.86
2023-04-09T02:03:56.418Z,7.79
2023-04-09T02:06:34.555Z,7.83
2023-04-09T02:09:07.535Z,7.83
2023-04-09T02:11:40.677Z,7.76
2023-04-09T02:14:11.071Z,7.75
2023-04-09T02:16:41.539Z,7.64
2023-04-09T02:19:10.984Z,7.62
2023-04-09T02:21:38.979Z,7.51
2023-04-09T02:24:06.840Z,7.47
2023-04-09T02:26:35.049Z,7.48
2023-04-09T02:29:03.012Z,7.46
2023-04-09T02:31:30.818Z,7.39
2023-04-09T02:34:00.065Z,7.39
2023-04-09T02:36:27.922Z,7.46
2023-04-09T02:38:56.407Z,7.44
2023-04-09T02:41:24.864Z,7.40
2023-04-09T02:43:52.876Z,7.38
2023-04-09T02:46:20.797Z,7.41
2023-04-09T02:48:49.364Z,7.36
2023-04-09T02:51:20.420Z,7.32
2023-04-09T02:53:48.612Z,7.29
2023-04-09T02:56:16.337Z,7.30
2023-04-09T02:58:44.142Z,7.33
2023-04-09T03:01:12.022Z,7.35
2023-04-09T03:03:42.175Z,7.31
2023-04-09T03:06:10.577Z,7.28
2023-04-09T03:08:39.859Z,7.27
2023-04-09T03:11:07.915Z,7.21
2023-04-09T03:13:35.880Z,7.16
2023-04-09T03:16:04.193Z,7.19
2023-04-09T03:18:32.079Z,7.14
2023-04-09T03:20:59.862Z,7.15
2023-04-09T03:23:34.725Z,7.12
2023-04-09T03:26:06.179Z,7.07
2023-04-09T03:28:44.614Z,7.09
2023-04-09T03:31:14.086Z,7.01
2023-04-09T03:33:43.274Z,6.90
2023-04-09T03:36:12.142Z,6.85
2023-04-09T03:38:51.951Z,6.71
2023-04-09T03:41:32.894Z,6.66
2023-04-09T03:44:05.190Z,6.65
2023-04-09T03:46:41.623Z,6.62
2023-04-09T03:49:13.681Z,6.65
2023-04-09T03:51:44.499Z,6.57
2023-04-09T03:54:12.990Z,6.53
2023-04-09T03:56:43.059Z,6.51
2023-04-09T03:59:13.508Z,6.45
2023-04-09T04:01:45.411Z,6.40
2023-04-09T04:04:14.145Z,6.43
2023-04-09T04:06:45.253Z,6.44
2023-04-09T04:09:29.145Z,6.49
2023-04-09T04:12:03.219Z,6.51
2023-04-09T04:14:54.811Z,6.45
2023-04-09T04:17:32.953Z,6.42
2023-04-09T04:20:03.092Z,6.34
2023-04-09T04:22:35.943Z,6.39
2023-04-09T04:25:06.510Z,6.44
2023-04-09T04:27:35.682Z,6.52
2023-04-09T04:30:04.567Z,6.48
2023-04-09T04:32:50.755Z,6.55
2023-04-09T04:35:19.156Z,6.50
2023-04-09T04:37:49.897Z,6.42
2023-04-09T04:40:18.260Z,6.42
2023-04-09T04:42:52.399Z,6.34
2023-04-09T04:45:20.219Z,6.34
2023-04-09T04:47:53.606Z,6.30
2023-04-09T04:50:21.551Z,6.24
2023-04-09T04:53:00.585Z,6.18
2023-04-09T04:55:36.325Z,6.13
2023-04-09T04:58:06.457Z,6.14
2023-04-09T05:00:43.331Z,6.15
2023-04-09T05:03:12.011Z,6.13
2023-04-09T05:06:02.166Z,6.14
2023-04-09T05:08:37.482Z,6.21
2023-04-09T05:11:05.701Z,6.26
2023-04-09T05:13:39.276Z,6.25
2023-04-09T05:16:17.514Z,6.23
2023-04-09T05:18:48.588Z,6.18
2023-04-09T05:21:17.032Z,6.24
2023-04-09T05:23:46.299Z,6.37
2023-04-09T05:26:14.116Z,6.37
2023-04-09T05:28:52.740Z,6.55
2023-04-09T05:31:23.542Z,6.63
2023-04-09T05:33:58.986Z,6.63
2023-04-09T05:36:36.199Z,6.59
2023-04-09T05:39:04.333Z,6.62
2023-04-09T05:41:33.479Z,6.63
2023-04-09T05:44:28.430Z,6.72
2023-04-09T05:47:03.093Z,6.79
2023-04-09T05:49:41.657Z,6.94
2023-04-09T05:52:14.616Z,6.89
2023-04-09T05:54:42.631Z,7.25
2023-04-09T05:57:12.120Z,7.51
2023-04-09T05:59:45.271Z,7.67
2023-04-09T06:02:13.222Z,7.64
2023-04-09T06:04:41.402Z,7.81
2023-04-09T06:07:09.306Z,7.90
2023-04-09T06:09:38.023Z,7.96
2023-04-09T06:12:05.938Z,7.84
2023-04-09T06:14:33.751Z,8.06
2023-04-09T06:17:03.461Z,8.24
2023-04-09T06:19:31.512Z,8.50
2023-04-09T06:21:59.253Z,8.71
2023-04-09T06:24:27.110Z,8.90
2023-04-09T06:26:55.342Z,8.82
2023-04-09T06:29:24.371Z,8.94
2023-04-09T06:31:52.644Z,9.18
2023-04-09T06:34:21.869Z,9.02
2023-04-09T06:36:49.663Z,9.29
2023-04-09T06:39:17.475Z,9.15
2023-04-09T06:41:46.388Z,9.38
2023-04-09T06:44:26.834Z,9.63
2023-04-09T06:46:54.682Z,9.90
2023-04-09T06:49:24.016Z,10.08
2023-04-09T06:51:53.555Z,10.45
2023-04-09T06:54:21.320Z,10.54
2023-04-09T06:56:49.181Z,10.68
2023-04-09T06:59:16.906Z,11.05
2023-04-09T07:01:45.777Z,11.27
2023-04-09T07:04:13.677Z,11.42
2023-04-09T07:06:42.867Z,11.50
2023-04-09T07:09:11.061Z,11.62
2023-04-09T07:11:38.839Z,11.68
2023-04-09T07:14:06.632Z,11.69
2023-04-09T07:16:34.486Z,11.99
2023-04-09T07:19:02.409Z,12.08
2023-04-09T07:21:30.393Z,12.36
2023-04-09T07:23:59.563Z,12.79
2023-04-09T07:26:27.422Z,13.07
2023-04-09T07:28:56.078Z,13.33
2023-04-09T07:31:23.986Z,13.65
2023-04-09T07:33:51.979Z,13.76
2023-04-09T07:36:20.020Z,13.93
2023-04-09T07:38:47.775Z,14.10
2023-04-09T07:41:17.016Z,14.47
2023-04-09T07:43:44.807Z,14.81
2023-04-09T07:46:19.803Z,15.21
2023-04-09T07:48:49.378Z,15.31
2023-04-09T07:51:17.344Z,15.56
2023-04-09T07:53:45.230Z,15.44
2023-04-09T07:56:13.628Z,15.49
2023-04-09T07:58:43.044Z,15.90
2023-04-09T08:01:10.840Z,15.97
2023-04-09T08:03:38.761Z,15.84
2023-04-09T08:06:07.212Z,15.58
2023-04-09T08:08:35.693Z,16.00
2023-04-09T08:11:04.064Z,16.39
2023-04-09T08:13:31.846Z,16.67
2023-04-09T08:16:02.650Z,16.62
2023-04-09T08:18:30.491Z,16.21
2023-04-09T08:20:58.301Z,15.81
2023-04-09T08:23:26.303Z,16.31
2023-04-09T08:25:54.020Z,16.35
2023-04-09T08:28:21.772Z,16.81
2023-04-09T08:30:50.058Z,16.46
2023-04-09T08:33:19.142Z,17.08
2023-04-09T08:35:47.033Z,17.46
2023-04-09T08:38:15.889Z,17.61
2023-04-09T08:40:43.734Z,18.07
2023-04-09T08:43:18.880Z,18.06
2023-04-09T08:45:47.399Z,18.69
2023-04-09T08:48:17.993Z,18.74
2023-04-09T08:50:47.569Z,18.94
2023-04-09T08:53:17.516Z,19.01
2023-04-09T08:55:46.302Z,19.23
2023-04-09T08:58:14.488Z,18.98
2023-04-09T09:00:42.432Z,18.89
2023-04-09T09:03:15.995Z,18.52
2023-04-09T09:05:46.906Z,18.78
2023-04-09T09:08:24.768Z,19.36
2023-04-09T09:10:52.732Z,19.49
2023-04-09T09:13:23.571Z,19.22
2023-04-09T09:15:55.229Z,19.31
2023-04-09T09:18:41.054Z,19.50
2023-04-09T09:21:15.620Z,19.90
2023-04-09T09:23:44.232Z,20.06
2023-04-09T09:26:13.777Z,20.28
2023-04-09T09:28:42.072Z,20.83
2023-04-09T09:31:11.923Z,21.60
2023-04-09T09:33:40.852Z,21.63
2023-04-09T09:36:09.490Z,21.65
2023-04-09T09:38:56.318Z,21.63
2023-04-09T09:41:25.825Z,21.22
2023-04-09T09:43:53.626Z,21.49
2023-04-09T09:46:22.864Z,21.38
2023-04-09T09:48:51.106Z,21.35
2023-04-09T09:51:25.844Z,21.12
2023-04-09T09:53:57.158Z,21.79
2023-04-09T09:56:32.645Z,21.94
2023-04-09T09:59:07.848Z,21.34
2023-04-09T10:01:36.605Z,21.86
2023-04-09T10:04:13.287Z,21.89
2023-04-09T10:06:45.054Z,21.57
2023-04-09T10:09:16.044Z,21.48
2023-04-09T10:11:47.944Z,21.60
2023-04-09T10:14:17.668Z,21.30
2023-04-09T10:16:46.925Z,21.10
2023-04-09T10:19:15.612Z,21.40
2023-04-09T10:21:53.422Z,22.03
2023-04-09T10:24:24.122Z,21.95
2023-04-09T10:26:55.006Z,22.54
2023-04-09T10:29:29.194Z,22.20
2023-04-09T10:32:06.242Z,22.24
2023-04-09T10:34:38.495Z,22.65
2023-04-09T10:37:12.287Z,22.26
2023-04-09T10:39:47.310Z,21.34
2023-04-09T10:42:20.508Z,21.53
2023-04-09T10:45:06.848Z,21.94
2023-04-09T10:47:37.914Z,22.62
2023-04-09T10:50:18.746Z,22.68
2023-04-09T10:52:51.776Z,22.31
2023-04-09T10:55:37.506Z,21.97
2023-04-09T10:58:12.696Z,22.24
2023-04-09T11:00:44.438Z,22.54
2023-04-09T11:03:22.389Z,22.64
2023-04-09T11:06:02.697Z,22.70
2023-04-09T11:08:33.185Z,22.32
2023-04-09T11:11:03.484Z,21.69
2023-04-09T11:13:32.859Z,20.61
2023-04-09T11:16:03.352Z,20.43
2023-04-09T11:18:33.817Z,20.28
2023-04-09T11:21:04.412Z,20.64
2023-04-09T11:23:33.453Z,20.76
2023-04-09T11:26:02.801Z,21.02
2023-04-09T11:28:30.734Z,21.79
2023-04-09T11:30:58.550Z,21.86
2023-04-09T11:33:33.182Z,21.65
2023-04-09T11:36:01.733Z,22.33
2023-04-09T11:38:31.587Z,22.81
2023-04-09T11:40:59.426Z,23.36
2023-04-09T11:43:28.634Z,24.13
2023-04-09T11:45:57.669Z,24.36
2023-04-09T11:48:25.956Z,24.13
2023-04-09T11:50:54.464Z,24.84
2023-04-09T11:53:23.736Z,23.90
2023-04-09T11:55:53.464Z,23.78
2023-04-09T11:58:24.096Z,24.32
2023-04-09T12:00:56.064Z,23.74
2023-04-09T12:03:30.696Z,23.94
2023-04-09T12:06:01.773Z,23.80
2023-04-09T12:08:31.107Z,23.32
2023-04-09T12:11:09.132Z,22.76
2023-04-09T12:13:37.028Z,22.84
2023-04-09T12:16:06.303Z,22.50
2023-04-09T12:18:37.412Z,22.43
2023-04-09T12:21:06.170Z,22.00
2023-04-09T12:23:33.963Z,21.91
2023-04-09T12:26:02.171Z,22.09
2023-04-09T12:28:30.749Z,21.86
2023-04-09T12:30:59.415Z,20.24
2023-04-09T12:33:28.872Z,19.53
2023-04-09T12:35:58.235Z,18.80
2023-04-09T12:38:26.721Z,18.79
2023-04-09T12:40:54.511Z,18.66
2023-04-09T12:43:22.364Z,19.03
2023-04-09T12:45:50.218Z,18.89
2023-04-09T12:48:18.053Z,18.94
2023-04-09T12:50:47.687Z,18.76
2023-04-09T12:53:15.630Z,18.77
2023-04-09T12:55:43.415Z,19.42
2023-04-09T12:58:11.271Z,20.45
2023-04-09T13:00:39.184Z,21.63
2023-04-09T13:03:07.373Z,21.88
2023-04-09T13:05:35.595Z,22.09
2023-04-09T13:08:04.847Z,21.95
2023-04-09T13:10:33.303Z,22.45
2023-04-09T13:13:01.401Z,22.90
2023-04-09T13:15:29.206Z,23.49
2023-04-09T13:17:57.133Z,23.76
2023-04-09T13:20:25.029Z,23.79
2023-04-09T13:22:52.881Z,24.30
2023-04-09T13:25:22.201Z,24.23
2023-04-09T13:27:50.130Z,23.99
2023-04-09T13:30:18.254Z,23.36
2023-04-09T13:32:46.184Z,22.11
2023-04-09T13:35:14.065Z,21.71
2023-04-09T13:37:42.116Z,21.10
2023-04-09T13:40:10.939Z,20.58
2023-04-09T13:42:40.266Z,20.37
2023-04-09T13:45:08.815Z,20.03
2023-04-09T13:47:36.903Z,20.30
2023-04-09T13:50:06.316Z,20.11
2023-04-09T13:52:34.120Z,19.47
2023-04-09T13:55:03.680Z,19.52
2023-04-09T13:57:31.701Z,19.68
2023-04-09T14:00:05.085Z,20.00
2023-04-09T14:02:33.181Z,21.04
2023-04-09T14:05:02.462Z,21.92
2023-04-09T14:07:30.779Z,22.55
2023-04-09T14:09:58.481Z,23.19
2023-04-09T14:12:26.243Z,23.50
2023-04-09T14:14:54.088Z,23.94
2023-04-09T14:17:23.134Z,24.08
2023-04-09T14:19:51.239Z,24.14
2023-04-09T14:22:19.133Z,23.78
2023-04-09T14:24:47.008Z,22.89
2023-04-09T14:27:14.876Z,22.09
2023-04-09T14:29:42.829Z,21.02
2023-04-09T14:32:10.585Z,20.99
2023-04-09T14:34:39.927Z,20.86
2023-04-09T14:37:08.722Z,20.88
2023-04-09T14:39:36.603Z,21.24
2023-04-09T14:42:04.482Z,21.21
2023-04-09T14:44:32.859Z,20.89
2023-04-09T14:47:00.816Z,21.09
2023-04-09T14:49:28.830Z,21.69
2023-04-09T14:51:58.929Z,22.28
2023-04-09T14:54:27.028Z,21.88
2023-04-09T14:56:54.850Z,21.47
2023-04-09T14:59:22.709Z,21.31
2023-04-09T15:01:50.727Z,20.82
2023-04-09T15:04:18.745Z,20.59
2023-04-09T15:06:46.871Z,20.63
2023-04-09T15:09:16.264Z,20.33
2023-04-09T15:11:44.138Z,20.16
2023-04-09T15:14:12.059Z,20.14
2023-04-09T15:16:39.895Z,20.25
2023-04-09T15:19:08.992Z,19.89
2023-04-09T15:21:36.754Z,20.21
2023-04-09T15:24:04.774Z,19.54
2023-04-09T15:26:34.367Z,19.54
2023-04-09T15:29:06.395Z,19.83
2023-04-09T15:31:34.685Z,20.06
2023-04-09T15:34:02.456Z,20.08
2023-04-09T15:36:31.505Z,19.77
2023-04-09T15:38:59.416Z,19.85
2023-04-09T15:41:27.411Z,19.58
2023-04-09T15:43:56.621Z,19.28
2023-04-09T15:46:24.503Z,19.02
2023-04-09T15:48:52.847Z,18.78
2023-04-09T15:51:21.266Z,18.90
2023-04-09T15:53:49.122Z,19.55
2023-04-09T15:56:16.965Z,20.18
2023-04-09T15:58:44.842Z,20.42
2023-04-09T16:01:14.203Z,19.64
2023-04-09T16:03:42.237Z,19.39
2023-04-09T16:06:14.437Z,18.84
2023-04-09T16:08:42.464Z,18.28
2023-04-09T16:11:10.698Z,18.02
2023-04-09T16:13:38.543Z,17.84
2023-04-09T16:16:07.470Z,18.02
2023-04-09T16:18:36.750Z,18.17
2023-04-09T16:21:05.683Z,17.96
2023-04-09T16:23:33.712Z,17.87
2023-04-09T16:26:01.507Z,18.27
2023-04-09T16:28:29.390Z,18.46
2023-04-09T16:30:57.172Z,18.04
2023-04-09T16:33:25.153Z,17.68
2023-04-09T16:35:54.328Z,17.53
2023-04-09T16:38:23.583Z,17.62
2023-04-09T16:40:51.510Z,17.77
2023-04-09T16:43:19.390Z,17.92
2023-04-09T16:45:47.269Z,17.99
2023-04-09T16:48:15.446Z,17.84
2023-04-09T16:50:43.508Z,17.23
2023-04-09T16:53:12.694Z,16.97
2023-04-09T16:55:40.587Z,16.76
2023-04-09T16:58:08.312Z,16.85
2023-04-09T17:00:36.153Z,16.41
2023-04-09T17:03:04.241Z,16.27
2023-04-09T17:05:32.540Z,16.25
2023-04-09T17:08:00.588Z,16.20
2023-04-09T17:10:29.886Z,15.97
2023-04-09T17:12:57.710Z,15.83
2023-04-09T17:15:25.915Z,15.85
2023-04-09T17:17:53.918Z,15.77
2023-04-09T17:20:22.669Z,15.50
2023-04-09T17:22:50.678Z,15.55
2023-04-09T17:25:20.286Z,15.41
2023-04-09T17:27:49.390Z,15.18
2023-04-09T17:30:17.351Z,14.99
2023-04-09T17:32:45.842Z,14.90
2023-04-09T17:35:13.785Z,14.81
2023-04-09T17:37:41.620Z,14.58
2023-04-09T17:40:12.288Z,14.51
2023-04-09T17:42:40.991Z,14.46
2023-04-09T17:45:11.888Z,14.38
2023-04-09T17:47:40.661Z,14.27
2023-04-09T17:50:09.800Z,14.26
2023-04-09T17:52:38.627Z,14.14
2023-04-09T17:55:07.687Z,14.00
2023-04-09T17:57:35.834Z,13.96
2023-04-09T18:00:04.809Z,13.87
2023-04-09T18:02:34.952Z,13.81
2023-04-09T18:05:04.862Z,13.72
2023-04-09T18:07:37.180Z,13.67
2023-04-09T18:10:06.243Z,13.48
2023-04-09T18:12:34.084Z,13.48
2023-04-09T18:15:02.085Z,13.51
2023-04-09T18:17:30.004Z,13.41
2023-04-09T18:19:59.176Z,13.28
2023-04-09T18:22:27.322Z,13.30
2023-04-09T18:24:55.437Z,13.32
2023-04-09T18:27:23.270Z,13.17
2023-04-09T18:29:52.348Z,13.02
2023-04-09T18:32:20.302Z,12.88
2023-04-09T18:34:48.388Z,12.90
2023-04-09T18:37:19.138Z,12.88
2023-04-09T18:39:47.297Z,12.85
2023-04-09T18:42:15.322Z,12.81
2023-04-09T18:44:43.766Z,12.77
2023-04-09T18:47:11.803Z,12.75
2023-04-09T18:49:39.545Z,12.79
2023-04-09T18:52:09.226Z,12.62
2023-04-09T18:54:38.808Z,12.53
2023-04-09T18:57:07.377Z,12.48
2023-04-09T18:59:35.618Z,12.45
2023-04-09T19:02:05.125Z,12.41
2023-04-09T19:04:39.602Z,12.36
2023-04-09T19:07:07.988Z,12.31
2023-04-09T19:09:37.127Z,12.27
2023-04-09T19:12:06.543Z,12.20
2023-04-09T19:14:36.332Z,12.14
2023-04-09T19:17:04.135Z,12.00
2023-04-09T19:19:32.451Z,11.99
2023-04-09T19:22:00.390Z,11.98
2023-04-09T19:24:28.174Z,11.90
2023-04-09T19:26:56.562Z,11.82
2023-04-09T19:29:25.694Z,11.84
2023-04-09T19:31:53.712Z,11.87
2023-04-09T19:34:21.709Z,11.81
2023-04-09T19:36:49.465Z,11.72
2023-04-09T19:39:17.213Z,11.63
2023-04-09T19:41:44.985Z,11.64
2023-04-09T19:44:12.824Z,11.49
2023-04-09T19:46:42.264Z,11.50
2023-04-09T19:49:10.275Z,11.46
2023-04-09T19:51:38.095Z,11.40
2023-04-09T19:54:05.819Z,11.43
2023-04-09T19:56:34.054Z,11.47
2023-04-09T19:59:02.207Z,11.42
2023-04-09T20:01:30.112Z,11.37
2023-04-09T20:03:59.482Z,11.41
2023-04-09T20:06:28.815Z,11.45
2023-04-09T20:08:56.591Z,11.40
2023-04-09T20:11:24.525Z,11.27
2023-04-09T20:13:52.372Z,11.33
2023-04-09T20:16:20.289Z,11.36
2023-04-09T20:18:48.201Z,11.33
2023-04-09T20:21:17.529Z,11.29
2023-04-09T20:23:45.528Z,11.33
2023-04-09T20:26:13.620Z,11.29
2023-04-09T20:28:42.144Z,11.37
2023-04-09T20:31:09.975Z,11.37
2023-04-09T20:33:37.820Z,11.32
2023-04-09T20:36:15.168Z,11.33
2023-04-09T20:38:44.911Z,11.18
2023-04-09T20:41:12.708Z,11.18
2023-04-09T20:43:40.672Z,11.13
2023-04-09T20:46:08.603Z,11.18
2023-04-09T20:48:36.455Z,11.06
2023-04-09T20:51:09.997Z,10.98
2023-04-09T20:53:38.614Z,10.86
2023-04-09T20:56:09.113Z,10.78
2023-04-09T20:58:37.277Z,10.78
2023-04-09T21:01:07.644Z,10.78
2023-04-09T21:03:36.230Z,10.74
2023-04-09T21:06:04.934Z,10.74
2023-04-09T21:08:32.973Z,10.61
2023-04-09T21:11:00.882Z,10.51
2023-04-09T21:13:33.664Z,10.43
2023-04-09T21:16:08.792Z,10.39
2023-04-09T21:18:36.688Z,10.33
2023-04-09T21:21:07.418Z,10.37
2023-04-09T21:23:35.326Z,10.38
2023-04-09T21:26:03.454Z,10.39
2023-04-09T21:28:32.654Z,10.36
2023-04-09T21:31:00.561Z,10.37
2023-04-09T21:33:30.056Z,10.34
2023-04-09T21:35:58.247Z,10.29
2023-04-09T21:38:26.170Z,10.21
2023-04-09T21:40:54.072Z,10.18
2023-04-09T21:43:21.809Z,10.15
2023-04-09T21:45:51.155Z,10.14
2023-04-09T21:48:19.068Z,10.20
2023-04-09T21:50:47.058Z,10.32
2023-04-09T21:53:15.871Z,10.24
2023-04-09T21:55:43.702Z,10.30
2023-04-09T21:58:11.980Z,10.32
2023-04-09T22:00:40.030Z,10.35
2023-04-09T22:03:09.439Z,10.38
2023-04-09T22:05:37.438Z,10.33
2023-04-09T22:08:05.285Z,10.33
2023-04-09T22:10:33.374Z,10.25
2023-04-09T22:13:01.264Z,10.23
2023-04-09T22:15:29.228Z,10.22
2023-04-09T22:17:57.593Z,10.19
2023-04-09T22:20:26.911Z,10.14
2023-04-09T22:22:54.890Z,10.05
2023-04-09T22:25:23.050Z,10.11
2023-04-09T22:27:52.215Z,10.00
2023-04-09T22:30:21.747Z,9.94
2023-04-09T22:32:50.011Z,9.95
2023-04-09T22:35:18.353Z,9.98
2023-04-09T22:37:47.551Z,10.06
2023-04-09T22:40:16.633Z,10.08
2023-04-09T22:42:46.645Z,10.09
2023-04-09T22:45:14.599Z,10.10
2023-04-09T22:47:42.456Z,10.07
2023-04-09T22:50:11.359Z,10.18
2023-04-09T22:52:39.120Z,10.14
2023-04-09T22:55:10.097Z,10.10
2023-04-09T22:57:38.282Z,10.08
2023-04-09T23:00:08.536Z,10.00
2023-04-09T23:02:37.058Z,9.99
2023-04-09T23:05:05.685Z,9.99
2023-04-09T23:07:33.729Z,10.08
2023-04-09T23:10:01.773Z,10.08
2023-04-09T23:12:31.026Z,10.08
2023-04-09T23:14:58.905Z,10.01
2023-04-09T23:17:27.672Z,9.93
2023-04-09T23:19:55.611Z,9.91
2023-04-09T23:22:24.225Z,9.85
2023-04-09T23:24:52.042Z,9.78
2023-04-09T23:27:19.818Z,9.68
2023-04-09T23:29:49.066Z,9.57
2023-04-09T23:32:16.867Z,9.52
2023-04-09T23:34:44.620Z,9.45
2023-04-09T23:37:12.523Z,9.40
2023-04-09T23:39:41.116Z,9.34
2023-04-09T23:42:08.978Z,9.27
2023-04-09T23:44:36.768Z,9.22
2023-04-09T23:47:06.549Z,9.14
2023-04-09T23:49:34.421Z,9.09
2023-04-09T23:52:02.278Z,9.09
2023-04-09T23:54:30.635Z,9.13
2023-04-09T23:56:58.524Z,9.05
2023-04-09T23:59:26.444Z,9.08
